sensor_id;sensor_type;location;lat;lon;timestamp;P1;durP1;ratioP1;P2;durP2;ratioP2
25846;SDS011;13676;50.168;8.568;2022-07-29T00:00:02;6.40;;;1.27;;
25846;SDS011;13676;50.168;8.568;2022-07-29T00:02:29;12.50;;;1.33;;
25846;SDS011;13676;50.168;8.568;2022-07-29T00:04:54;5.68;;;1.15;;
25846;SDS011;13676;50.168;8.568;2022-07-29T00:07:19;4.30;;;1.17;;
25846;SDS011;13676;50.168;8.568;2022-07-29T00:09:45;6.82;;;1.23;;
25846;SDS011;13676;50.168;8.568;2022-07-29T00:12:10;7.65;;;1.33;;
25846;SDS011;13676;50.168;8.568;2022-07-29T00:14:36;3.25;;;1.50;;
25846;SDS011;13676;50.168;8.568;2022-07-29T00:17:02;2.70;;;0.80;;
25846;SDS011;13676;50.168;8.568;2022-07-29T00:19:27;5.28;;;1.10;;
25846;SDS011;13676;50.168;8.568;2022-07-29T00:21:53;5.00;;;1.08;;
25846;SDS011;13676;50.168;8.568;2022-07-29T00:24:18;2.65;;;1.30;;
25846;SDS011;13676;50.168;8.568;2022-07-29T00:26:43;2.78;;;1.00;;
25846;SDS011;13676;50.168;8.568;2022-07-29T00:29:09;3.42;;;0.90;;
25846;SDS011;13676;50.168;8.568;2022-07-29T00:31:34;3.08;;;1.08;;
25846;SDS011;13676;50.168;8.568;2022-07-29T00:33:59;4.82;;;1.60;;
25846;SDS011;13676;50.168;8.568;2022-07-29T00:36:25;8.90;;;2.03;;
25846;SDS011;13676;50.168;8.568;2022-07-29T00:38:50;6.72;;;1.48;;
25846;SDS011;13676;50.168;8.568;2022-07-29T00:41:16;4.15;;;1.58;;
25846;SDS011;13676;50.168;8.568;2022-07-29T00:43:42;5.78;;;1.70;;
25846;SDS011;13676;50.168;8.568;2022-07-29T00:46:08;7.20;;;1.75;;
25846;SDS011;13676;50.168;8.568;2022-07-29T00:48:33;4.45;;;1.50;;
25846;SDS011;13676;50.168;8.568;2022-07-29T00:50:59;6.85;;;1.75;;
25846;SDS011;13676;50.168;8.568;2022-07-29T00:53:25;4.90;;;1.55;;
25846;SDS011;13676;50.168;8.568;2022-07-29T00:55:50;4.32;;;1.20;;
25846;SDS011;13676;50.168;8.568;2022-07-29T00:58:16;4.68;;;1.50;;
25846;SDS011;13676;50.168;8.568;2022-07-29T01:00:41;3.60;;;1.85;;
25846;SDS011;13676;50.168;8.568;2022-07-29T01:03:07;6.82;;;1.58;;
25846;SDS011;13676;50.168;8.568;2022-07-29T01:05:32;4.25;;;1.70;;
25846;SDS011;13676;50.168;8.568;2022-07-29T01:07:58;2.72;;;1.50;;
25846;SDS011;13676;50.168;8.568;2022-07-29T01:10:24;5.25;;;1.70;;
25846;SDS011;13676;50.168;8.568;2022-07-29T01:12:50;5.63;;;1.30;;
25846;SDS011;13676;50.168;8.568;2022-07-29T01:15:16;3.20;;;1.13;;
25846;SDS011;13676;50.168;8.568;2022-07-29T01:17:54;3.63;;;1.77;;
25846;SDS011;13676;50.168;8.568;2022-07-29T01:20:38;2.67;;;1.67;;
25846;SDS011;13676;50.168;8.568;2022-07-29T01:23:40;5.93;;;1.70;;
25846;SDS011;13676;50.168;8.568;2022-07-29T01:32:01;3.07;;;1.87;;
25846;SDS011;13676;50.168;8.568;2022-07-29T01:34:39;3.22;;;1.90;;
25846;SDS011;13676;50.168;8.568;2022-07-29T01:39:52;5.93;;;2.25;;
25846;SDS011;13676;50.168;8.568;2022-07-29T01:42:25;4.50;;;1.95;;
25846;SDS011;13676;50.168;8.568;2022-07-29T01:47:41;5.88;;;1.95;;
25846;SDS011;13676;50.168;8.568;2022-07-29T01:50:10;5.10;;;2.00;;
25846;SDS011;13676;50.168;8.568;2022-07-29T01:52:41;5.75;;;2.03;;
25846;SDS011;13676;50.168;8.568;2022-07-29T01:55:12;4.80;;;1.90;;
25846;SDS011;13676;50.168;8.568;2022-07-29T01:57:39;4.05;;;1.77;;
25846;SDS011;13676;50.168;8.568;2022-07-29T02:00:05;2.85;;;1.52;;
25846;SDS011;13676;50.168;8.568;2022-07-29T02:02:31;4.50;;;2.00;;
25846;SDS011;13676;50.168;8.568;2022-07-29T02:04:58;5.13;;;1.77;;
25846;SDS011;13676;50.168;8.568;2022-07-29T02:07:25;2.92;;;1.67;;
25846;SDS011;13676;50.168;8.568;2022-07-29T02:09:53;8.43;;;2.20;;
25846;SDS011;13676;50.168;8.568;2022-07-29T02:12:19;2.05;;;1.33;;
25846;SDS011;13676;50.168;8.568;2022-07-29T02:14:46;4.30;;;1.77;;
25846;SDS011;13676;50.168;8.568;2022-07-29T02:17:13;3.88;;;1.80;;
25846;SDS011;13676;50.168;8.568;2022-07-29T02:19:47;4.65;;;1.77;;
25846;SDS011;13676;50.168;8.568;2022-07-29T02:22:13;9.43;;;2.47;;
25846;SDS011;13676;50.168;8.568;2022-07-29T02:24:39;6.65;;;2.03;;
25846;SDS011;13676;50.168;8.568;2022-07-29T02:27:05;10.85;;;2.10;;
25846;SDS011;13676;50.168;8.568;2022-07-29T02:29:32;5.72;;;2.05;;
25846;SDS011;13676;50.168;8.568;2022-07-29T02:31:58;5.20;;;1.88;;
25846;SDS011;13676;50.168;8.568;2022-07-29T02:34:24;3.92;;;1.70;;
25846;SDS011;13676;50.168;8.568;2022-07-29T02:36:50;4.63;;;1.77;;
25846;SDS011;13676;50.168;8.568;2022-07-29T02:39:16;7.70;;;1.92;;
25846;SDS011;13676;50.168;8.568;2022-07-29T02:41:46;4.00;;;1.90;;
25846;SDS011;13676;50.168;8.568;2022-07-29T02:44:18;3.50;;;1.90;;
25846;SDS011;13676;50.168;8.568;2022-07-29T02:46:49;5.82;;;1.60;;
25846;SDS011;13676;50.168;8.568;2022-07-29T02:52:05;4.05;;;1.48;;
25846;SDS011;13676;50.168;8.568;2022-07-29T02:55:37;7.70;;;1.60;;
25846;SDS011;13676;50.168;8.568;2022-07-29T02:57:58;7.10;;;1.75;;
25846;SDS011;13676;50.168;8.568;2022-07-29T03:00:34;4.13;;;1.80;;
25846;SDS011;13676;50.168;8.568;2022-07-29T03:03:03;3.35;;;1.70;;
25846;SDS011;13676;50.168;8.568;2022-07-29T03:05:30;5.75;;;1.75;;
25846;SDS011;13676;50.168;8.568;2022-07-29T03:07:57;4.18;;;1.90;;
25846;SDS011;13676;50.168;8.568;2022-07-29T03:10:26;6.90;;;2.08;;
25846;SDS011;13676;50.168;8.568;2022-07-29T03:12:52;3.13;;;1.70;;
25846;SDS011;13676;50.168;8.568;2022-07-29T03:15:19;3.30;;;1.60;;
25846;SDS011;13676;50.168;8.568;2022-07-29T03:17:45;2.00;;;1.55;;
25846;SDS011;13676;50.168;8.568;2022-07-29T03:20:11;4.38;;;1.85;;
25846;SDS011;13676;50.168;8.568;2022-07-29T03:22:41;6.15;;;1.98;;
25846;SDS011;13676;50.168;8.568;2022-07-29T03:25:16;3.45;;;1.65;;
25846;SDS011;13676;50.168;8.568;2022-07-29T03:27:43;5.78;;;1.80;;
25846;SDS011;13676;50.168;8.568;2022-07-29T03:30:08;2.80;;;1.60;;
25846;SDS011;13676;50.168;8.568;2022-07-29T03:32:35;4.35;;;1.73;;
25846;SDS011;13676;50.168;8.568;2022-07-29T03:35:01;4.18;;;2.20;;
25846;SDS011;13676;50.168;8.568;2022-07-29T03:37:26;3.88;;;1.70;;
25846;SDS011;13676;50.168;8.568;2022-07-29T03:39:52;3.38;;;1.65;;
25846;SDS011;13676;50.168;8.568;2022-07-29T03:42:18;4.95;;;1.77;;
25846;SDS011;13676;50.168;8.568;2022-07-29T03:44:45;5.43;;;2.20;;
25846;SDS011;13676;50.168;8.568;2022-07-29T03:47:13;5.32;;;2.25;;
25846;SDS011;13676;50.168;8.568;2022-07-29T03:49:40;2.75;;;1.73;;
25846;SDS011;13676;50.168;8.568;2022-07-29T03:52:06;4.30;;;2.00;;
25846;SDS011;13676;50.168;8.568;2022-07-29T03:54:31;4.38;;;2.00;;
25846;SDS011;13676;50.168;8.568;2022-07-29T03:56:56;2.92;;;1.73;;
25846;SDS011;13676;50.168;8.568;2022-07-29T03:59:25;4.75;;;2.38;;
25846;SDS011;13676;50.168;8.568;2022-07-29T04:01:51;2.70;;;1.83;;
25846;SDS011;13676;50.168;8.568;2022-07-29T04:04:16;5.20;;;2.50;;
25846;SDS011;13676;50.168;8.568;2022-07-29T04:06:43;3.13;;;1.92;;
25846;SDS011;13676;50.168;8.568;2022-07-29T04:09:10;2.13;;;1.52;;
25846;SDS011;13676;50.168;8.568;2022-07-29T04:11:35;3.67;;;2.00;;
25846;SDS011;13676;50.168;8.568;2022-07-29T04:14:02;7.22;;;2.25;;
25846;SDS011;13676;50.168;8.568;2022-07-29T04:16:27;3.85;;;1.90;;
25846;SDS011;13676;50.168;8.568;2022-07-29T04:18:52;8.00;;;2.58;;
25846;SDS011;13676;50.168;8.568;2022-07-29T04:21:18;4.82;;;2.08;;
25846;SDS011;13676;50.168;8.568;2022-07-29T04:23:43;6.75;;;2.10;;
25846;SDS011;13676;50.168;8.568;2022-07-29T04:26:10;5.93;;;2.60;;
25846;SDS011;13676;50.168;8.568;2022-07-29T04:28:35;6.10;;;2.58;;
25846;SDS011;13676;50.168;8.568;2022-07-29T04:31:01;6.90;;;2.47;;
25846;SDS011;13676;50.168;8.568;2022-07-29T04:33:26;6.45;;;2.50;;
25846;SDS011;13676;50.168;8.568;2022-07-29T04:35:52;6.20;;;2.83;;
25846;SDS011;13676;50.168;8.568;2022-07-29T04:38:17;7.60;;;2.60;;
25846;SDS011;13676;50.168;8.568;2022-07-29T04:40:43;4.65;;;2.17;;
25846;SDS011;13676;50.168;8.568;2022-07-29T04:43:08;4.90;;;2.30;;
25846;SDS011;13676;50.168;8.568;2022-07-29T04:45:33;4.93;;;2.10;;
25846;SDS011;13676;50.168;8.568;2022-07-29T04:47:59;3.80;;;2.25;;
25846;SDS011;13676;50.168;8.568;2022-07-29T04:50:24;8.60;;;2.97;;
25846;SDS011;13676;50.168;8.568;2022-07-29T04:52:53;6.68;;;3.20;;
25846;SDS011;13676;50.168;8.568;2022-07-29T04:55:18;5.80;;;2.65;;
25846;SDS011;13676;50.168;8.568;2022-07-29T04:57:43;4.75;;;2.25;;
25846;SDS011;13676;50.168;8.568;2022-07-29T05:00:09;4.03;;;2.20;;
25846;SDS011;13676;50.168;8.568;2022-07-29T05:02:34;4.07;;;2.40;;
25846;SDS011;13676;50.168;8.568;2022-07-29T05:05:00;5.57;;;2.67;;
25846;SDS011;13676;50.168;8.568;2022-07-29T05:07:25;4.95;;;2.60;;
25846;SDS011;13676;50.168;8.568;2022-07-29T05:09:50;8.02;;;2.60;;
25846;SDS011;13676;50.168;8.568;2022-07-29T05:12:16;5.50;;;2.28;;
25846;SDS011;13676;50.168;8.568;2022-07-29T05:14:41;5.63;;;2.22;;
25846;SDS011;13676;50.168;8.568;2022-07-29T05:17:06;4.03;;;2.30;;
25846;SDS011;13676;50.168;8.568;2022-07-29T05:19:32;4.90;;;2.40;;
25846;SDS011;13676;50.168;8.568;2022-07-29T05:21:57;4.13;;;2.22;;
25846;SDS011;13676;50.168;8.568;2022-07-29T05:24:22;5.47;;;2.72;;
25846;SDS011;13676;50.168;8.568;2022-07-29T05:26:48;6.85;;;2.58;;
25846;SDS011;13676;50.168;8.568;2022-07-29T05:29:13;4.50;;;2.38;;
25846;SDS011;13676;50.168;8.568;2022-07-29T05:31:38;5.43;;;2.50;;
25846;SDS011;13676;50.168;8.568;2022-07-29T05:34:04;5.63;;;2.38;;
25846;SDS011;13676;50.168;8.568;2022-07-29T05:36:29;5.50;;;2.33;;
25846;SDS011;13676;50.168;8.568;2022-07-29T05:38:54;6.07;;;2.50;;
25846;SDS011;13676;50.168;8.568;2022-07-29T05:41:20;7.60;;;2.58;;
25846;SDS011;13676;50.168;8.568;2022-07-29T05:43:46;3.72;;;1.90;;
25846;SDS011;13676;50.168;8.568;2022-07-29T05:46:11;3.58;;;2.10;;
25846;SDS011;13676;50.168;8.568;2022-07-29T05:48:37;3.03;;;1.83;;
25846;SDS011;13676;50.168;8.568;2022-07-29T05:51:02;5.78;;;2.38;;
25846;SDS011;13676;50.168;8.568;2022-07-29T05:53:28;4.88;;;1.90;;
25846;SDS011;13676;50.168;8.568;2022-07-29T05:55:53;4.70;;;1.88;;
25846;SDS011;13676;50.168;8.568;2022-07-29T05:58:19;4.78;;;2.25;;
25846;SDS011;13676;50.168;8.568;2022-07-29T06:00:45;7.00;;;2.30;;
25846;SDS011;13676;50.168;8.568;2022-07-29T06:03:11;4.13;;;2.13;;
25846;SDS011;13676;50.168;8.568;2022-07-29T06:05:36;4.47;;;1.90;;
25846;SDS011;13676;50.168;8.568;2022-07-29T06:08:02;6.18;;;2.65;;
25846;SDS011;13676;50.168;8.568;2022-07-29T06:10:27;4.63;;;2.28;;
25846;SDS011;13676;50.168;8.568;2022-07-29T06:12:53;6.50;;;2.10;;
25846;SDS011;13676;50.168;8.568;2022-07-29T06:15:18;3.25;;;1.75;;
25846;SDS011;13676;50.168;8.568;2022-07-29T06:17:44;10.45;;;2.60;;
25846;SDS011;13676;50.168;8.568;2022-07-29T06:20:09;5.38;;;2.22;;
25846;SDS011;13676;50.168;8.568;2022-07-29T06:22:35;9.30;;;2.10;;
25846;SDS011;13676;50.168;8.568;2022-07-29T06:25:00;7.15;;;2.22;;
25846;SDS011;13676;50.168;8.568;2022-07-29T06:27:27;4.28;;;2.10;;
25846;SDS011;13676;50.168;8.568;2022-07-29T06:29:52;9.75;;;2.60;;
25846;SDS011;13676;50.168;8.568;2022-07-29T06:32:17;5.28;;;2.42;;
25846;SDS011;13676;50.168;8.568;2022-07-29T06:34:44;5.60;;;2.08;;
25846;SDS011;13676;50.168;8.568;2022-07-29T06:37:09;4.05;;;2.10;;
25846;SDS011;13676;50.168;8.568;2022-07-29T06:39:35;5.10;;;2.10;;
25846;SDS011;13676;50.168;8.568;2022-07-29T06:42:01;5.37;;;1.80;;
25846;SDS011;13676;50.168;8.568;2022-07-29T06:44:27;5.97;;;1.90;;
25846;SDS011;13676;50.168;8.568;2022-07-29T06:46:52;3.15;;;1.70;;
25846;SDS011;13676;50.168;8.568;2022-07-29T06:49:19;6.45;;;2.10;;
25846;SDS011;13676;50.168;8.568;2022-07-29T06:51:45;6.32;;;1.95;;
25846;SDS011;13676;50.168;8.568;2022-07-29T06:54:10;5.50;;;2.20;;
25846;SDS011;13676;50.168;8.568;2022-07-29T06:56:35;6.07;;;2.03;;
25846;SDS011;13676;50.168;8.568;2022-07-29T06:59:02;6.30;;;2.30;;
25846;SDS011;13676;50.168;8.568;2022-07-29T07:01:28;4.75;;;2.33;;
25846;SDS011;13676;50.168;8.568;2022-07-29T07:03:53;4.55;;;1.90;;
25846;SDS011;13676;50.168;8.568;2022-07-29T07:06:19;3.22;;;1.70;;
25846;SDS011;13676;50.168;8.568;2022-07-29T07:08:44;3.45;;;1.48;;
25846;SDS011;13676;50.168;8.568;2022-07-29T07:11:09;5.07;;;1.75;;
25846;SDS011;13676;50.168;8.568;2022-07-29T07:13:35;4.57;;;2.20;;
25846;SDS011;13676;50.168;8.568;2022-07-29T07:16:01;4.85;;;1.70;;
25846;SDS011;13676;50.168;8.568;2022-07-29T07:18:26;3.75;;;2.10;;
25846;SDS011;13676;50.168;8.568;2022-07-29T07:20:52;5.68;;;1.77;;
25846;SDS011;13676;50.168;8.568;2022-07-29T07:23:18;4.85;;;1.70;;
25846;SDS011;13676;50.168;8.568;2022-07-29T07:25:43;5.50;;;1.60;;
25846;SDS011;13676;50.168;8.568;2022-07-29T07:28:09;4.95;;;1.77;;
25846;SDS011;13676;50.168;8.568;2022-07-29T07:30:34;4.00;;;1.70;;
25846;SDS011;13676;50.168;8.568;2022-07-29T07:33:00;3.15;;;1.75;;
25846;SDS011;13676;50.168;8.568;2022-07-29T07:35:26;3.22;;;1.67;;
25846;SDS011;13676;50.168;8.568;2022-07-29T07:37:52;3.25;;;1.80;;
25846;SDS011;13676;50.168;8.568;2022-07-29T07:40:18;2.45;;;1.50;;
25846;SDS011;13676;50.168;8.568;2022-07-29T07:42:43;5.18;;;1.80;;
25846;SDS011;13676;50.168;8.568;2022-07-29T07:45:09;4.45;;;1.83;;
25846;SDS011;13676;50.168;8.568;2022-07-29T07:47:36;7.10;;;2.13;;
25846;SDS011;13676;50.168;8.568;2022-07-29T07:50:02;4.63;;;2.08;;
25846;SDS011;13676;50.168;8.568;2022-07-29T07:52:31;7.18;;;1.90;;
25846;SDS011;13676;50.168;8.568;2022-07-29T07:54:57;4.68;;;2.47;;
25846;SDS011;13676;50.168;8.568;2022-07-29T07:57:22;4.97;;;1.85;;
25846;SDS011;13676;50.168;8.568;2022-07-29T07:59:48;3.22;;;1.83;;
25846;SDS011;13676;50.168;8.568;2022-07-29T08:02:13;7.28;;;1.85;;
25846;SDS011;13676;50.168;8.568;2022-07-29T08:04:38;5.97;;;2.08;;
25846;SDS011;13676;50.168;8.568;2022-07-29T08:07:05;3.70;;;1.73;;
25846;SDS011;13676;50.168;8.568;2022-07-29T08:09:31;3.58;;;1.75;;
25846;SDS011;13676;50.168;8.568;2022-07-29T08:11:57;4.88;;;2.05;;
25846;SDS011;13676;50.168;8.568;2022-07-29T08:14:23;4.18;;;1.58;;
25846;SDS011;13676;50.168;8.568;2022-07-29T08:16:48;2.45;;;1.50;;
25846;SDS011;13676;50.168;8.568;2022-07-29T08:19:14;7.85;;;1.92;;
25846;SDS011;13676;50.168;8.568;2022-07-29T08:21:39;5.60;;;1.98;;
25846;SDS011;13676;50.168;8.568;2022-07-29T08:24:05;3.50;;;1.33;;
25846;SDS011;13676;50.168;8.568;2022-07-29T08:26:49;3.22;;;1.80;;
25846;SDS011;13676;50.168;8.568;2022-07-29T08:29:14;6.18;;;1.83;;
25846;SDS011;13676;50.168;8.568;2022-07-29T08:31:41;4.38;;;2.00;;
25846;SDS011;13676;50.168;8.568;2022-07-29T08:34:06;4.75;;;1.38;;
25846;SDS011;13676;50.168;8.568;2022-07-29T08:36:32;3.08;;;1.52;;
25846;SDS011;13676;50.168;8.568;2022-07-29T08:38:58;3.95;;;1.50;;
25846;SDS011;13676;50.168;8.568;2022-07-29T08:41:24;3.47;;;1.50;;
25846;SDS011;13676;50.168;8.568;2022-07-29T08:43:50;4.07;;;1.42;;
25846;SDS011;13676;50.168;8.568;2022-07-29T08:46:17;3.97;;;1.33;;
25846;SDS011;13676;50.168;8.568;2022-07-29T08:48:43;2.45;;;1.40;;
25846;SDS011;13676;50.168;8.568;2022-07-29T08:51:08;3.20;;;1.80;;
25846;SDS011;13676;50.168;8.568;2022-07-29T08:53:39;12.15;;;2.28;;
25846;SDS011;13676;50.168;8.568;2022-07-29T08:56:07;5.25;;;1.95;;
25846;SDS011;13676;50.168;8.568;2022-07-29T08:58:33;3.55;;;1.60;;
25846;SDS011;13676;50.168;8.568;2022-07-29T09:00:59;2.60;;;1.63;;
25846;SDS011;13676;50.168;8.568;2022-07-29T09:03:27;5.10;;;1.58;;
25846;SDS011;13676;50.168;8.568;2022-07-29T09:05:55;5.20;;;1.90;;
25846;SDS011;13676;50.168;8.568;2022-07-29T09:08:21;4.20;;;1.27;;
25846;SDS011;13676;50.168;8.568;2022-07-29T09:10:46;2.63;;;1.60;;
25846;SDS011;13676;50.168;8.568;2022-07-29T09:13:12;2.35;;;1.52;;
25846;SDS011;13676;50.168;8.568;2022-07-29T09:15:37;6.43;;;1.95;;
25846;SDS011;13676;50.168;8.568;2022-07-29T09:18:02;3.80;;;1.40;;
25846;SDS011;13676;50.168;8.568;2022-07-29T09:20:28;3.25;;;1.63;;
25846;SDS011;13676;50.168;8.568;2022-07-29T09:23:12;6.57;;;1.80;;
25846;SDS011;13676;50.168;8.568;2022-07-29T09:25:38;7.50;;;2.63;;
25846;SDS011;13676;50.168;8.568;2022-07-29T09:28:09;3.85;;;2.05;;
25846;SDS011;13676;50.168;8.568;2022-07-29T09:33:20;3.50;;;1.70;;
25846;SDS011;13676;50.168;8.568;2022-07-29T09:35:46;2.35;;;1.55;;
25846;SDS011;13676;50.168;8.568;2022-07-29T09:38:30;6.38;;;1.83;;
25846;SDS011;13676;50.168;8.568;2022-07-29T09:40:56;5.90;;;1.92;;
25846;SDS011;13676;50.168;8.568;2022-07-29T09:43:26;3.95;;;1.80;;
25846;SDS011;13676;50.168;8.568;2022-07-29T09:45:51;8.63;;;1.95;;
25846;SDS011;13676;50.168;8.568;2022-07-29T09:48:18;6.32;;;2.25;;
25846;SDS011;13676;50.168;8.568;2022-07-29T09:50:45;5.15;;;2.05;;
25846;SDS011;13676;50.168;8.568;2022-07-29T09:53:11;5.15;;;1.60;;
25846;SDS011;13676;50.168;8.568;2022-07-29T09:55:50;2.80;;;1.60;;
25846;SDS011;13676;50.168;8.568;2022-07-29T09:58:19;7.38;;;2.08;;
25846;SDS011;13676;50.168;8.568;2022-07-29T10:00:46;6.90;;;1.80;;
25846;SDS011;13676;50.168;8.568;2022-07-29T10:03:13;3.35;;;1.40;;
25846;SDS011;13676;50.168;8.568;2022-07-29T10:05:40;3.60;;;1.52;;
25846;SDS011;13676;50.168;8.568;2022-07-29T10:08:07;5.65;;;1.70;;
25846;SDS011;13676;50.168;8.568;2022-07-29T10:10:34;3.67;;;1.75;;
25846;SDS011;13676;50.168;8.568;2022-07-29T10:13:02;4.47;;;1.70;;
25846;SDS011;13676;50.168;8.568;2022-07-29T10:15:32;6.80;;;2.22;;
25846;SDS011;13676;50.168;8.568;2022-07-29T10:18:02;7.28;;;1.63;;
25846;SDS011;13676;50.168;8.568;2022-07-29T10:20:27;5.88;;;1.70;;
25846;SDS011;13676;50.168;8.568;2022-07-29T10:22:53;3.28;;;1.10;;
25846;SDS011;13676;50.168;8.568;2022-07-29T10:25:19;6.53;;;2.00;;
25846;SDS011;13676;50.168;8.568;2022-07-29T10:27:46;4.77;;;2.00;;
25846;SDS011;13676;50.168;8.568;2022-07-29T10:30:13;4.85;;;2.00;;
25846;SDS011;13676;50.168;8.568;2022-07-29T10:35:44;6.22;;;1.80;;
25846;SDS011;13676;50.168;8.568;2022-07-29T10:41:11;2.90;;;1.52;;
25846;SDS011;13676;50.168;8.568;2022-07-29T10:46:24;3.55;;;1.55;;
25846;SDS011;13676;50.168;8.568;2022-07-29T10:49:06;4.32;;;1.67;;
25846;SDS011;13676;50.168;8.568;2022-07-29T11:05:04;4.13;;;1.65;;
25846;SDS011;13676;50.168;8.568;2022-07-29T11:07:37;2.67;;;1.88;;
25846;SDS011;13676;50.168;8.568;2022-07-29T11:17:45;8.37;;;2.03;;
25846;SDS011;13676;50.168;8.568;2022-07-29T11:22:59;2.13;;;1.27;;
25846;SDS011;13676;50.168;8.568;2022-07-29T11:25:25;7.78;;;1.40;;
25846;SDS011;13676;50.168;8.568;2022-07-29T11:27:54;5.97;;;1.50;;
25846;SDS011;13676;50.168;8.568;2022-07-29T11:30:50;4.22;;;1.85;;
25846;SDS011;13676;50.168;8.568;2022-07-29T11:33:27;3.38;;;2.10;;
25846;SDS011;13676;50.168;8.568;2022-07-29T11:38:38;5.38;;;1.33;;
25846;SDS011;13676;50.168;8.568;2022-07-29T11:43:52;3.88;;;1.85;;
25846;SDS011;13676;50.168;8.568;2022-07-29T11:47:02;3.75;;;1.70;;
25846;SDS011;13676;50.168;8.568;2022-07-29T11:49:08;6.68;;;1.80;;
25846;SDS011;13676;50.168;8.568;2022-07-29T11:51:35;2.22;;;1.40;;
25846;SDS011;13676;50.168;8.568;2022-07-29T11:54:02;2.92;;;1.40;;
25846;SDS011;13676;50.168;8.568;2022-07-29T11:56:27;6.63;;;1.83;;
25846;SDS011;13676;50.168;8.568;2022-07-29T11:59:05;5.82;;;2.67;;
25846;SDS011;13676;50.168;8.568;2022-07-29T12:01:32;3.15;;;1.55;;
25846;SDS011;13676;50.168;8.568;2022-07-29T12:04:04;2.88;;;1.48;;
25846;SDS011;13676;50.168;8.568;2022-07-29T12:06:30;4.15;;;1.88;;
25846;SDS011;13676;50.168;8.568;2022-07-29T12:08:55;4.20;;;1.63;;
25846;SDS011;13676;50.168;8.568;2022-07-29T12:11:21;2.95;;;1.67;;
25846;SDS011;13676;50.168;8.568;2022-07-29T12:13:47;3.45;;;1.70;;
25846;SDS011;13676;50.168;8.568;2022-07-29T12:16:13;3.00;;;1.50;;
25846;SDS011;13676;50.168;8.568;2022-07-29T12:18:38;5.18;;;2.05;;
25846;SDS011;13676;50.168;8.568;2022-07-29T12:21:04;4.03;;;1.60;;
25846;SDS011;13676;50.168;8.568;2022-07-29T12:23:30;4.45;;;1.75;;
25846;SDS011;13676;50.168;8.568;2022-07-29T12:25:58;4.82;;;1.92;;
25846;SDS011;13676;50.168;8.568;2022-07-29T12:28:24;4.97;;;2.03;;
25846;SDS011;13676;50.168;8.568;2022-07-29T12:30:50;5.53;;;1.77;;
25846;SDS011;13676;50.168;8.568;2022-07-29T12:33:26;4.03;;;1.33;;
25846;SDS011;13676;50.168;8.568;2022-07-29T12:35:54;2.60;;;1.40;;
25846;SDS011;13676;50.168;8.568;2022-07-29T12:38:20;6.03;;;2.30;;
25846;SDS011;13676;50.168;8.568;2022-07-29T12:40:46;4.45;;;1.90;;
25846;SDS011;13676;50.168;8.568;2022-07-29T12:43:13;7.43;;;2.13;;
25846;SDS011;13676;50.168;8.568;2022-07-29T12:45:41;3.45;;;1.60;;
25846;SDS011;13676;50.168;8.568;2022-07-29T12:48:11;4.82;;;1.50;;
25846;SDS011;13676;50.168;8.568;2022-07-29T12:50:50;3.95;;;1.77;;
25846;SDS011;13676;50.168;8.568;2022-07-29T12:53:24;5.20;;;1.40;;
25846;SDS011;13676;50.168;8.568;2022-07-29T12:55:50;4.72;;;1.85;;
25846;SDS011;13676;50.168;8.568;2022-07-29T12:58:26;3.85;;;1.70;;
25846;SDS011;13676;50.168;8.568;2022-07-29T13:01:10;2.58;;;1.42;;
25846;SDS011;13676;50.168;8.568;2022-07-29T13:14:09;3.70;;;1.88;;
25846;SDS011;13676;50.168;8.568;2022-07-29T13:16:36;6.97;;;4.50;;
25846;SDS011;13676;50.168;8.568;2022-07-29T13:19:11;5.25;;;1.75;;
25846;SDS011;13676;50.168;8.568;2022-07-29T13:21:37;4.60;;;1.70;;
25846;SDS011;13676;50.168;8.568;2022-07-29T13:24:04;2.35;;;1.23;;
25846;SDS011;13676;50.168;8.568;2022-07-29T13:28:56;3.80;;;1.87;;
25846;SDS011;13676;50.168;8.568;2022-07-29T13:31:21;2.88;;;1.27;;
25846;SDS011;13676;50.168;8.568;2022-07-29T13:33:47;2.65;;;1.40;;
25846;SDS011;13676;50.168;8.568;2022-07-29T13:36:12;3.50;;;1.35;;
25846;SDS011;13676;50.168;8.568;2022-07-29T13:38:38;4.30;;;1.60;;
25846;SDS011;13676;50.168;8.568;2022-07-29T13:41:03;3.83;;;1.27;;
25846;SDS011;13676;50.168;8.568;2022-07-29T13:43:29;3.38;;;1.60;;
25846;SDS011;13676;50.168;8.568;2022-07-29T13:45:54;1.92;;;1.20;;
25846;SDS011;13676;50.168;8.568;2022-07-29T13:48:20;3.70;;;1.60;;
25846;SDS011;13676;50.168;8.568;2022-07-29T13:50:45;3.00;;;1.77;;
25846;SDS011;13676;50.168;8.568;2022-07-29T13:53:11;7.47;;;1.80;;
25846;SDS011;13676;50.168;8.568;2022-07-29T13:55:37;2.72;;;1.65;;
25846;SDS011;13676;50.168;8.568;2022-07-29T13:58:02;3.47;;;1.55;;
25846;SDS011;13676;50.168;8.568;2022-07-29T14:00:28;3.10;;;1.70;;
25846;SDS011;13676;50.168;8.568;2022-07-29T14:02:54;2.25;;;1.42;;
25846;SDS011;13676;50.168;8.568;2022-07-29T14:05:19;5.85;;;2.00;;
25846;SDS011;13676;50.168;8.568;2022-07-29T14:07:44;3.22;;;2.15;;
25846;SDS011;13676;50.168;8.568;2022-07-29T14:10:10;2.67;;;1.90;;
25846;SDS011;13676;50.168;8.568;2022-07-29T14:12:35;3.55;;;1.92;;
25846;SDS011;13676;50.168;8.568;2022-07-29T14:15:00;3.05;;;1.60;;
25846;SDS011;13676;50.168;8.568;2022-07-29T14:17:26;3.20;;;1.60;;
25846;SDS011;13676;50.168;8.568;2022-07-29T14:19:52;2.70;;;1.63;;
25846;SDS011;13676;50.168;8.568;2022-07-29T14:22:17;4.53;;;1.70;;
25846;SDS011;13676;50.168;8.568;2022-07-29T14:24:44;6.45;;;1.67;;
25846;SDS011;13676;50.168;8.568;2022-07-29T14:27:09;4.45;;;1.88;;
25846;SDS011;13676;50.168;8.568;2022-07-29T14:29:34;3.92;;;1.80;;
25846;SDS011;13676;50.168;8.568;2022-07-29T14:32:00;3.67;;;1.90;;
25846;SDS011;13676;50.168;8.568;2022-07-29T14:34:25;4.97;;;1.90;;
25846;SDS011;13676;50.168;8.568;2022-07-29T14:36:51;3.05;;;1.70;;
25846;SDS011;13676;50.168;8.568;2022-07-29T14:39:16;6.50;;;2.53;;
25846;SDS011;13676;50.168;8.568;2022-07-29T14:41:42;2.88;;;1.83;;
25846;SDS011;13676;50.168;8.568;2022-07-29T14:44:08;3.45;;;2.13;;
25846;SDS011;13676;50.168;8.568;2022-07-29T14:46:33;6.03;;;2.25;;
25846;SDS011;13676;50.168;8.568;2022-07-29T14:48:59;5.82;;;1.83;;
25846;SDS011;13676;50.168;8.568;2022-07-29T14:51:24;5.20;;;1.90;;
25846;SDS011;13676;50.168;8.568;2022-07-29T14:53:50;2.72;;;1.98;;
25846;SDS011;13676;50.168;8.568;2022-07-29T14:56:15;3.05;;;1.50;;
25846;SDS011;13676;50.168;8.568;2022-07-29T14:58:40;1.88;;;1.30;;
25846;SDS011;13676;50.168;8.568;2022-07-29T15:01:06;2.35;;;1.05;;
25846;SDS011;13676;50.168;8.568;2022-07-29T15:03:31;2.22;;;1.00;;
25846;SDS011;13676;50.168;8.568;2022-07-29T15:05:56;1.70;;;0.88;;
25846;SDS011;13676;50.168;8.568;2022-07-29T15:08:22;3.22;;;1.00;;
25846;SDS011;13676;50.168;8.568;2022-07-29T15:10:47;2.47;;;0.90;;
25846;SDS011;13676;50.168;8.568;2022-07-29T15:13:13;1.98;;;1.02;;
25846;SDS011;13676;50.168;8.568;2022-07-29T15:15:38;1.38;;;0.80;;
25846;SDS011;13676;50.168;8.568;2022-07-29T15:18:04;0.82;;;0.65;;
25846;SDS011;13676;50.168;8.568;2022-07-29T15:20:29;2.85;;;0.80;;
25846;SDS011;13676;50.168;8.568;2022-07-29T15:22:55;4.25;;;1.33;;
25846;SDS011;13676;50.168;8.568;2022-07-29T15:25:21;2.10;;;0.88;;
25846;SDS011;13676;50.168;8.568;2022-07-29T15:27:47;4.45;;;0.85;;
25846;SDS011;13676;50.168;8.568;2022-07-29T15:30:13;0.80;;;0.70;;
25846;SDS011;13676;50.168;8.568;2022-07-29T15:32:41;2.33;;;0.90;;
25846;SDS011;13676;50.168;8.568;2022-07-29T15:35:06;1.67;;;0.82;;
25846;SDS011;13676;50.168;8.568;2022-07-29T15:37:32;1.50;;;0.75;;
25846;SDS011;13676;50.168;8.568;2022-07-29T15:39:59;1.23;;;0.90;;
25846;SDS011;13676;50.168;8.568;2022-07-29T15:42:25;2.17;;;0.75;;
25846;SDS011;13676;50.168;8.568;2022-07-29T15:44:50;1.23;;;0.88;;
25846;SDS011;13676;50.168;8.568;2022-07-29T15:47:16;2.45;;;1.00;;
25846;SDS011;13676;50.168;8.568;2022-07-29T15:49:41;1.05;;;0.80;;
25846;SDS011;13676;50.168;8.568;2022-07-29T15:52:07;1.92;;;0.82;;
25846;SDS011;13676;50.168;8.568;2022-07-29T15:57:01;1.55;;;0.88;;